Time;durP1;ratioP1;P1;durP2;ratioP2;P2;SDS_P1;SDS_P2;PMS_P1;PMS_P2;Temp;Humidity;BMP_temperature;BMP_pressure;BME280_temperature;BME280_humidity;BME280_pressure;Samples;Min_cycle;Max_cycle;Signal;HPM_P1;HPM_P2
2022/02/05 00:00:34;;;;;;;10.15;2.58;;;4.40;99.90;;;;;;5049612;28;20400;-65
2022/02/05 00:05:42;;;;;;;15.85;2.35;;;4.40;99.90;;;;;;5035201;28;20052;-65
2022/02/05 00:42:59;;;;;;;8.10;2.75;;;4.20;99.90;;;;;;5030455;28;20500;-65
2022/02/05 00:45:28;;;;;;;8.05;3.17;;;4.10;99.90;;;;;;5051062;28;20098;-64
2022/02/05 00:47:56;;;;;;;8.30;2.47;;;4.10;99.90;;;;;;5051945;28;20047;-66
2022/02/05 00:50:26;;;;;;;7.03;2.47;;;4.10;99.90;;;;;;5022990;28;20122;-71
2022/02/05 00:53:08;;;;;;;6.18;2.40;;;4.10;99.90;;;;;;5038066;28;20489;-65
2022/02/05 00:55:39;;;;;;;4.15;2.30;;;4.10;99.90;;;;;;5017574;28;20065;-64
2022/02/05 00:58:06;;;;;;;8.82;2.53;;;4.10;99.90;;;;;;5039123;28;20386;-65
2022/02/05 01:00:35;;;;;;;7.88;3.30;;;4.10;99.90;;;;;;5052962;28;20041;-66
2022/02/05 01:03:03;;;;;;;4.53;2.43;;;4.10;99.90;;;;;;5034600;28;20049;-64
2022/02/05 01:05:30;;;;;;;6.70;2.55;;;4.10;99.90;;;;;;5038340;28;20642;-64
2022/02/05 01:07:57;;;;;;;8.80;3.55;;;4.00;99.90;;;;;;5033204;28;20489;-64
2022/02/05 01:10:25;;;;;;;4.25;2.30;;;4.00;99.90;;;;;;5033500;28;20052;-65
2022/02/05 01:12:57;;;;;;;7.80;2.47;;;4.00;99.90;;;;;;5018098;28;20053;-64
2022/02/05 01:15:29;;;;;;;6.30;2.42;;;4.00;99.90;;;;;;5041247;28;20049;-66
2022/02/05 01:18:01;;;;;;;7.65;2.03;;;4.00;99.90;;;;;;5033015;28;20060;-65
2022/02/05 01:23:01;;;;;;;;;;;3.90;99.90;;;;;;5039186;28;20507;-64
2022/02/05 01:25:34;;;;;;;6.65;2.08;;;3.90;99.90;;;;;;5038511;28;19921;-64
2022/02/05 01:28:10;;;;;;;9.80;2.95;;;3.90;99.90;;;;;;5036160;28;20056;-65
2022/02/05 01:30:41;;;;;;;8.73;2.50;;;3.80;99.90;;;;;;5000624;28;20493;-64
2022/02/05 01:35:53;;;;;;;8.13;2.38;;;3.80;99.90;;;;;;5051122;28;20056;-63
2022/02/05 02:05:38;;;;;;;6.37;1.90;;;3.60;99.90;;;;;;5032651;28;20053;-64
2022/02/05 02:11:15;;;;;;;7.35;2.10;;;3.60;99.90;;;;;;5032509;28;20049;-65
2022/02/05 02:27:31;;;;;;;13.05;3.38;;;3.50;99.90;;;;;;5032890;28;20061;-65
2022/02/05 02:30:11;;;;;;;10.55;3.80;;;3.50;99.90;;;;;;5024526;28;20041;-64
2022/02/05 02:32:41;;;;;;;8.80;2.72;;;3.50;99.90;;;;;;5032533;28;20046;-65
2022/02/05 02:35:14;;;;;;;9.38;2.15;;;3.50;99.90;;;;;;5026121;28;20041;-65
2022/02/05 02:40:43;;;;;;;8.98;2.30;;;3.40;99.90;;;;;;5038785;28;20086;-65
2022/02/05 02:43:12;;;;;;;9.43;2.90;;;3.50;99.90;;;;;;5047062;28;20045;-65
2022/02/05 02:45:41;;;;;;;5.82;2.40;;;3.40;99.90;;;;;;5026059;28;20049;-65
2022/02/05 02:48:08;;;;;;;7.20;2.22;;;3.40;99.90;;;;;;5031796;28;20042;-65
2022/02/05 02:56:29;;;;;;;5.05;1.80;;;3.40;99.90;;;;;;5026301;28;20056;-65
2022/02/05 02:58:59;;;;;;;4.78;2.25;;;3.40;99.90;;;;;;5036937;28;20072;-64
2022/02/05 03:01:28;;;;;;;8.13;2.20;;;3.40;99.90;;;;;;5030299;28;20048;-69
2022/02/05 03:03:55;;;;;;;4.97;2.50;;;3.30;99.90;;;;;;5035607;28;20049;-64
2022/02/05 03:06:22;;;;;;;3.80;1.95;;;3.30;99.90;;;;;;5037082;28;20060;-65
2022/02/05 03:08:50;;;;;;;5.25;2.38;;;3.40;99.90;;;;;;5054928;28;20095;-65
2022/02/05 03:11:19;;;;;;;5.55;2.80;;;3.30;99.90;;;;;;5018348;28;20128;-65
2022/02/05 03:13:46;;;;;;;15.10;4.13;;;3.30;99.90;;;;;;5036758;28;20048;-66
2022/02/05 03:16:35;;;;;;;6.57;2.00;;;3.40;99.90;;;;;;5037611;28;20099;-65
2022/02/05 03:19:11;;;;;;;5.43;2.00;;;3.30;99.90;;;;;;5055017;28;20049;-66
2022/02/05 03:21:38;;;;;;;4.10;2.10;;;3.30;99.90;;;;;;5010871;28;20052;-65
2022/02/05 03:24:05;;;;;;;6.45;2.10;;;3.30;99.90;;;;;;5044555;28;20089;-64
2022/02/05 03:26:35;;;;;;;4.67;2.27;;;3.30;99.90;;;;;;5046549;28;20389;-64
2022/02/05 03:29:05;;;;;;;8.20;1.73;;;3.30;99.90;;;;;;5039888;28;20049;-65
2022/02/05 03:31:33;;;;;;;7.13;1.90;;;3.30;99.90;;;;;;5029733;28;20048;-65
2022/02/05 03:34:00;;;;;;;7.10;1.95;;;3.20;99.90;;;;;;5054541;28;20045;-65
2022/02/05 03:36:27;;;;;;;5.88;2.28;;;3.20;99.90;;;;;;5041266;28;20107;-65
2022/02/05 03:38:53;;;;;;;10.73;3.42;;;3.20;99.90;;;;;;5044010;28;20439;-64
2022/02/05 03:41:20;;;;;;;7.22;1.70;;;3.20;99.90;;;;;;5051367;28;20061;-65
2022/02/05 03:43:47;;;;;;;4.68;2.50;;;3.20;99.90;;;;;;5026966;28;20473;-65
2022/02/05 03:46:14;;;;;;;5.20;2.22;;;3.20;99.90;;;;;;5045246;28;20061;-64
2022/02/05 03:48:41;;;;;;;7.72;1.85;;;3.20;99.90;;;;;;5027637;28;20049;-66
2022/02/05 03:51:08;;;;;;;6.13;2.22;;;3.20;99.90;;;;;;5016785;28;20046;-65
2022/02/05 03:53:36;;;;;;;7.53;2.35;;;3.20;99.90;;;;;;5019422;28;20508;-64
2022/02/05 03:56:03;;;;;;;6.80;1.98;;;3.10;99.90;;;;;;5034685;28;20519;-64
2022/02/05 03:58:30;;;;;;;6.05;2.00;;;3.10;99.90;;;;;;5032300;28;20056;-65
2022/02/05 04:00:57;;;;;;;4.82;2.70;;;3.10;99.90;;;;;;5025456;28;20049;-65
2022/02/05 04:03:24;;;;;;;8.88;1.80;;;3.10;99.90;;;;;;5033989;28;20053;-65
2022/02/05 04:05:51;;;;;;;3.85;1.90;;;3.10;99.90;;;;;;5035945;28;20053;-64
2022/02/05 04:08:18;;;;;;;6.68;1.90;;;3.10;99.90;;;;;;5021303;28;20083;-64
2022/02/05 04:10:50;;;;;;;13.32;2.58;;;3.10;99.90;;;;;;5046993;28;20053;-67
2022/02/05 04:18:55;;;;;;;6.43;1.77;;;3.00;99.90;;;;;;5019058;28;20049;-65
2022/02/05 04:21:22;;;;;;;10.65;2.50;;;3.00;99.90;;;;;;5023435;28;20057;-66
2022/02/05 04:23:50;;;;;;;6.85;1.70;;;3.00;99.90;;;;;;5043157;28;20045;-66
2022/02/05 04:26:17;;;;;;;4.28;1.75;;;3.00;99.90;;;;;;5045995;28;20314;-65
2022/02/05 04:28:44;;;;;;;10.32;2.30;;;3.00;99.90;;;;;;5043560;28;20095;-65
2022/02/05 04:31:11;;;;;;;8.57;2.00;;;3.00;99.90;;;;;;5025895;28;20107;-64
2022/02/05 04:33:38;;;;;;;7.82;2.35;;;2.90;99.90;;;;;;5053404;28;20095;-65
2022/02/05 04:36:06;;;;;;;10.45;1.98;;;2.90;99.90;;;;;;5031825;28;20055;-66
2022/02/05 04:38:35;;;;;;;10.55;3.08;;;2.90;99.90;;;;;;5018243;28;20049;-65
2022/02/05 04:41:08;;;;;;;6.50;2.25;;;2.90;99.90;;;;;;5022922;28;20056;-66
2022/02/05 04:47:24;;;;;;;49.50;33.88;;;2.90;99.90;;;;;;5045852;28;20092;-67
2022/02/05 04:52:36;;;;;;;7.57;2.95;;;2.90;99.90;;;;;;5034745;28;20719;-65
2022/02/05 05:08:15;;;;;;;6.43;2.45;;;2.80;99.90;;;;;;5040842;28;20045;-65
2022/02/05 05:20:40;;;;;;;5.30;1.98;;;2.70;99.90;;;;;;5039585;28;19925;-65
2022/02/05 05:23:07;;;;;;;8.10;1.80;;;2.70;99.90;;;;;;5034981;28;20075;-66
2022/02/05 05:25:34;;;;;;;7.93;1.60;;;2.70;99.90;;;;;;5014891;28;20239;-65
2022/02/05 05:28:02;;;;;;;6.65;2.08;;;2.70;99.90;;;;;;5018994;28;20548;-66
2022/02/05 05:30:28;;;;;;;12.10;3.45;;;2.70;99.90;;;;;;5047937;28;20055;-66
2022/02/05 05:32:56;;;;;;;7.40;2.13;;;2.70;99.90;;;;;;5052519;28;20037;-66
2022/02/05 05:35:23;;;;;;;3.90;2.03;;;2.70;99.90;;;;;;5047717;28;20049;-65
2022/02/05 05:37:50;;;;;;;6.32;3.15;;;2.70;99.90;;;;;;5040697;28;20047;-65
2022/02/05 05:40:17;;;;;;;9.15;3.45;;;2.70;99.90;;;;;;5014953;28;20057;-65
2022/02/05 05:42:49;;;;;;;4.68;1.88;;;2.70;99.90;;;;;;5028541;28;20057;-65
2022/02/05 05:47:58;;;;;;;8.18;3.17;;;2.70;99.90;;;;;;5031671;28;20041;-65
2022/02/05 05:53:04;;;;;;;5.85;2.08;;;2.70;99.90;;;;;;5032285;28;20052;-65
2022/02/05 05:55:32;;;;;;;6.28;2.15;;;2.70;99.90;;;;;;5032774;28;20061;-65
2022/02/05 05:57:58;;;;;;;7.68;3.28;;;2.70;99.90;;;;;;4998848;28;20041;-65
2022/02/05 06:00:25;;;;;;;7.72;2.63;;;2.80;99.90;;;;;;5015049;28;20053;-65
2022/02/05 06:02:52;;;;;;;6.45;1.70;;;2.70;99.90;;;;;;5030026;28;20125;-65
2022/02/05 06:05:19;;;;;;;7.15;2.83;;;2.80;99.90;;;;;;5032463;28;20049;-65
2022/02/05 06:07:46;;;;;;;4.60;2.40;;;2.80;99.90;;;;;;5025476;28;20056;-66
2022/02/05 06:10:13;;;;;;;5.05;2.30;;;2.80;99.90;;;;;;5031871;28;20057;-65
2022/02/05 06:12:40;;;;;;;8.70;3.10;;;2.80;99.90;;;;;;5012500;28;20037;-65
2022/02/05 06:15:08;;;;;;;5.65;2.70;;;2.90;99.90;;;;;;5031539;28;20428;-65
2022/02/05 06:17:36;;;;;;;9.07;2.88;;;2.90;99.90;;;;;;5033822;28;20103;-65
2022/02/05 06:20:06;;;;;;;8.40;2.50;;;2.90;99.90;;;;;;5034660;28;20045;-65
2022/02/05 06:22:34;;;;;;;8.18;3.15;;;2.90;99.90;;;;;;5032146;28;20045;-65
2022/02/05 06:25:01;;;;;;;5.07;1.92;;;2.90;99.90;;;;;;5031001;28;20107;-65
2022/02/05 06:27:27;;;;;;;6.32;2.22;;;3.00;99.90;;;;;;5011017;28;20053;-65
2022/02/05 06:29:54;;;;;;;8.50;2.67;;;3.00;99.90;;;;;;5027755;28;20580;-65
2022/02/05 06:32:22;;;;;;;9.75;2.58;;;3.00;99.90;;;;;;5012744;28;20057;-65
2022/02/05 06:34:49;;;;;;;10.88;2.33;;;3.00;99.90;;;;;;5026466;28;20052;-65
2022/02/05 06:37:17;;;;;;;5.85;2.33;;;3.00;99.90;;;;;;5031725;28;20045;-65
2022/02/05 06:39:45;;;;;;;7.33;2.13;;;3.00;99.90;;;;;;5015703;28;20409;-66
2022/02/05 06:42:12;;;;;;;5.63;2.45;;;3.10;99.90;;;;;;5024701;28;20050;-65
2022/02/05 06:44:39;;;;;;;8.63;2.80;;;3.10;99.90;;;;;;5013600;28;20057;-65
2022/02/05 06:47:06;;;;;;;7.00;2.13;;;3.10;99.90;;;;;;5013182;28;20052;-65
2022/02/05 06:49:34;;;;;;;6.72;2.83;;;3.10;99.90;;;;;;5010951;28;20058;-65
2022/02/05 06:52:02;;;;;;;6.45;2.00;;;3.10;99.90;;;;;;5023817;28;20111;-65
2022/02/05 06:54:29;;;;;;;11.98;3.65;;;3.10;99.90;;;;;;5014921;28;20057;-65
2022/02/05 06:56:56;;;;;;;12.32;2.88;;;3.10;99.90;;;;;;5019485;28;20037;-64
2022/02/05 06:59:23;;;;;;;5.60;1.70;;;3.10;99.90;;;;;;5023763;28;20049;-72
2022/02/05 07:01:53;;;;;;;5.97;2.00;;;3.20;99.90;;;;;;4998068;28;20061;-65
2022/02/05 07:04:24;;;;;;;8.77;2.83;;;3.20;99.90;;;;;;5013641;28;20049;-65
2022/02/05 07:06:54;;;;;;;9.35;3.03;;;3.20;99.90;;;;;;5014293;28;20069;-65
2022/02/05 07:09:23;;;;;;;12.90;3.53;;;3.20;99.90;;;;;;5028807;28;20507;-65
2022/02/05 07:11:52;;;;;;;7.82;1.98;;;3.30;99.90;;;;;;5028588;28;20128;-65
2022/02/05 07:14:23;;;;;;;9.48;3.42;;;3.30;99.90;;;;;;5026904;28;20060;-65
2022/02/05 07:17:07;;;;;;;9.35;3.55;;;3.40;99.90;;;;;;5019807;28;20046;-65
2022/02/05 07:22:07;;;;;;;10.80;3.30;;;3.40;99.90;;;;;;5012801;28;20049;-65
2022/02/05 07:29:59;;;;;;;9.05;3.28;;;3.50;99.90;;;;;;5011298;28;20481;-65
2022/02/05 07:32:46;;;;;;;14.68;3.58;;;3.50;99.90;;;;;;5009768;28;20100;-65
2022/02/05 07:35:13;;;;;;;11.52;2.30;;;3.60;99.90;;;;;;5012950;28;20050;-65
2022/02/05 07:37:40;;;;;;;7.72;2.33;;;3.60;99.90;;;;;;4999524;28;20054;-65
2022/02/05 07:40:08;;;;;;;8.80;2.70;;;3.70;99.90;;;;;;5016105;28;20069;-65
2022/02/05 07:42:35;;;;;;;8.43;2.22;;;3.80;99.90;;;;;;5029048;28;20045;-67
2022/02/05 07:45:03;;;;;;;10.38;3.17;;;3.80;99.90;;;;;;5014827;28;20113;-65
2022/02/05 07:47:33;;;;;;;10.50;2.50;;;3.80;99.90;;;;;;5009220;28;20049;-65
2022/02/05 07:50:01;;;;;;;14.07;3.08;;;3.80;99.90;;;;;;4988933;28;20097;-65
2022/02/05 07:52:28;;;;;;;9.05;2.50;;;3.90;99.90;;;;;;5013052;28;20042;-65
2022/02/05 07:54:55;;;;;;;9.32;3.03;;;4.00;99.90;;;;;;5014047;28;20042;-66
2022/02/05 07:57:22;;;;;;;50.75;27.67;;;4.00;99.90;;;;;;5013319;28;20382;-67
2022/02/05 07:59:49;;;;;;;43.35;25.40;;;4.00;99.90;;;;;;5013458;28;20054;-63
2022/02/05 08:02:15;;;;;;;34.85;21.05;;;4.20;99.90;;;;;;5014025;28;20056;-65
2022/02/05 08:04:42;;;;;;;12.20;5.25;;;4.30;99.90;;;;;;5013038;28;20049;-65
2022/02/05 08:07:09;;;;;;;12.38;3.65;;;4.30;99.90;;;;;;5012355;28;20054;-64
2022/02/05 08:09:52;;;;;;;10.82;2.70;;;4.40;99.90;;;;;;5020734;28;20049;-65
2022/02/05 08:12:20;;;;;;;5.65;2.00;;;4.40;99.90;;;;;;5018835;28;20069;-65
2022/02/05 08:14:50;;;;;;;7.85;2.45;;;4.40;99.90;;;;;;5013406;28;20108;-65
2022/02/05 08:19:46;;;;;;;10.10;2.60;;;4.30;99.90;;;;;;5013805;28;20046;-66
2022/02/05 08:22:17;;;;;;;10.25;3.08;;;4.30;99.90;;;;;;5019772;28;20448;-65
2022/02/05 08:24:44;;;;;;;10.45;3.60;;;4.30;99.90;;;;;;4996274;28;20405;-65
2022/02/05 08:27:11;;;;;;;6.82;2.92;;;4.30;99.90;;;;;;5013330;28;20050;-66
2022/02/05 08:29:43;;;;;;;9.02;2.38;;;4.30;99.90;;;;;;5012513;28;20050;-65
2022/02/05 08:32:10;;;;;;;9.38;3.00;;;4.30;99.90;;;;;;5013458;28;20049;-64
2022/02/05 08:34:37;;;;;;;13.88;2.60;;;4.30;99.90;;;;;;5012658;28;20407;-65
2022/02/05 08:37:04;;;;;;;7.22;2.33;;;4.40;99.90;;;;;;5013012;28;20038;-67
2022/02/05 08:39:31;;;;;;;12.07;3.13;;;4.40;99.90;;;;;;5011642;28;20050;-65
2022/02/05 08:41:58;;;;;;;5.13;2.05;;;4.40;99.90;;;;;;5011662;28;20056;-65
2022/02/05 08:44:25;;;;;;;8.30;2.47;;;4.40;99.90;;;;;;5011493;28;20050;-64
2022/02/05 08:46:52;;;;;;;12.95;2.92;;;4.40;99.90;;;;;;5012117;28;20042;-65
2022/02/05 08:49:18;;;;;;;14.82;4.40;;;4.40;99.90;;;;;;5011260;28;20049;-65
2022/02/05 08:51:45;;;;;;;13.98;3.10;;;4.50;99.90;;;;;;4995114;28;20054;-65
2022/02/05 08:54:12;;;;;;;10.25;2.40;;;4.50;99.90;;;;;;5009219;28;20045;-65
2022/02/05 08:56:39;;;;;;;8.73;2.47;;;4.60;99.90;;;;;;5005056;28;20062;-67
2022/02/05 08:59:06;;;;;;;6.10;2.03;;;4.60;99.90;;;;;;5006956;28;20057;-65
2022/02/05 09:01:52;;;;;;;14.65;5.47;;;4.60;99.90;;;;;;5012298;28;20054;-65
2022/02/05 09:06:52;;;;;;;8.70;2.97;;;4.70;99.90;;;;;;5023704;28;20046;-65
2022/02/05 09:09:50;;;;;;;6.50;2.13;;;4.80;99.90;;;;;;4999665;28;20065;-65
2022/02/05 09:12:19;;;;;;;10.57;2.42;;;4.90;99.90;;;;;;5001458;28;20081;-65
2022/02/05 09:14:49;;;;;;;10.82;2.47;;;5.00;99.90;;;;;;5013010;28;20049;-69
2022/02/05 09:17:16;;;;;;;6.63;2.25;;;5.10;99.90;;;;;;5003290;28;20046;-63
2022/02/05 09:19:43;;;;;;;5.22;2.70;;;5.10;99.90;;;;;;4994300;28;20066;-67
2022/02/05 09:22:11;;;;;;;21.73;11.85;;;5.20;99.90;;;;;;5012232;28;20054;-67
2022/02/05 09:24:38;;;;;;;17.45;5.53;;;5.20;99.90;;;;;;5011657;28;20263;-67
2022/02/05 09:27:08;;;;;;;10.88;3.55;;;5.30;99.90;;;;;;5011468;28;20045;-65
2022/02/05 09:32:21;;;;;;;13.02;2.40;;;5.40;99.90;;;;;;5012178;28;20054;-65
2022/02/05 09:34:48;;;;;;;5.88;1.90;;;5.50;99.90;;;;;;4993546;28;20049;-67
2022/02/05 09:37:15;;;;;;;12.40;4.03;;;5.50;99.90;;;;;;5011548;28;20049;-67
2022/02/05 09:39:43;;;;;;;15.52;3.22;;;5.60;99.90;;;;;;5010905;28;20045;-66
2022/02/05 09:42:11;;;;;;;12.45;2.85;;;5.70;99.90;;;;;;5034000;28;20080;-68
2022/02/05 09:44:38;;;;;;;11.70;2.65;;;5.80;99.90;;;;;;5033296;28;20055;-67
2022/02/05 09:47:05;;;;;;;15.30;3.15;;;5.80;99.90;;;;;;5052360;28;20046;-67
2022/02/05 09:49:32;;;;;;;6.53;2.25;;;5.90;99.90;;;;;;5044905;28;20045;-66
2022/02/05 09:52:21;;;;;;;15.82;3.13;;;6.00;99.90;;;;;;5014972;28;20056;-67
2022/02/05 09:54:48;;;;;;;13.18;3.25;;;6.00;99.90;;;;;;5035285;28;20443;-68
2022/02/05 09:57:15;;;;;;;337.88;147.85;;;6.10;99.90;;;;;;5051096;28;20048;-72
2022/02/05 09:59:47;;;;;;;161.52;130.75;;;6.20;99.90;;;;;;5033208;28;20060;-69
2022/02/05 10:02:34;;;;;;;44.03;32.38;;;6.30;99.90;;;;;;5014990;28;20041;-65
2022/02/05 10:05:10;;;;;;;24.40;14.82;;;6.40;99.90;;;;;;5034822;28;20045;-64
2022/02/05 10:07:55;;;;;;;17.75;8.10;;;6.40;99.90;;;;;;5028111;28;20485;-65
2022/02/05 10:10:23;;;;;;;11.65;4.78;;;6.50;99.90;;;;;;5041020;28;20053;-67
2022/02/05 10:13:29;;;;;;;11.15;3.85;;;6.60;99.90;;;;;;5021974;28;20064;-65
2022/02/05 10:15:57;;;;;;;10.65;2.40;;;6.60;99.90;;;;;;4935941;29;20431;-64
2022/02/05 10:18:29;;;;;;;5.75;2.17;;;6.70;99.90;;;;;;4951826;29;20061;-67
2022/02/05 10:20:59;;;;;;;15.82;3.08;;;6.70;99.90;;;;;;4977869;28;20497;-67
2022/02/05 10:23:26;;;;;;;12.18;2.58;;;6.70;99.90;;;;;;5014214;28;20050;-66
2022/02/05 10:25:53;;;;;;;9.38;2.30;;;6.70;99.90;;;;;;5032133;28;20050;-67
2022/02/05 10:28:20;;;;;;;14.32;3.83;;;6.80;99.90;;;;;;5017748;28;20071;-67
2022/02/05 10:30:51;;;;;;;13.45;3.08;;;6.80;99.90;;;;;;5024944;28;20106;-67
2022/02/05 10:33:22;;;;;;;12.43;3.03;;;6.80;99.90;;;;;;5035262;28;20431;-67
2022/02/05 10:36:06;;;;;;;10.55;3.75;;;6.80;99.90;;;;;;5013940;28;20053;-65
2022/02/05 10:44:26;;;;;;;12.88;6.78;;;6.90;99.90;;;;;;5022532;28;20033;-62
2022/02/05 10:46:54;;;;;;;9.50;3.20;;;7.00;99.90;;;;;;5020978;28;20045;-62
2022/02/05 10:49:47;;;;;;;10.85;3.20;;;6.90;99.90;;;;;;5026894;28;20089;-71
2022/02/05 10:52:33;;;;;;;12.73;2.83;;;6.90;99.90;;;;;;5048289;28;20048;-62
2022/02/05 10:57:39;;;;;;;15.70;6.03;;;7.00;99.90;;;;;;5015701;28;20053;-63
2022/02/05 11:05:49;;;;;;;8.68;2.83;;;7.20;99.90;;;;;;5045791;28;20044;-63
2022/02/05 11:08:18;;;;;;;9.63;2.20;;;7.20;99.90;;;;;;5004985;28;20378;-62
2022/02/05 11:16:40;;;;;;;18.52;9.27;;;7.40;99.90;;;;;;5001110;28;20046;-65
2022/02/05 11:19:02;;;;;;;19.20;4.43;;;7.50;99.50;;;;;;5031788;28;20448;-64
2022/02/05 11:21:49;;;;;;;12.40;3.45;;;7.50;99.00;;;;;;5035035;28;20230;-63
2022/02/05 11:24:16;;;;;;;10.90;2.83;;;7.50;97.70;;;;;;5034295;28;20041;-63
2022/02/05 11:26:43;;;;;;;11.73;2.42;;;7.60;97.30;;;;;;5009539;28;20053;-64
2022/02/05 11:29:26;;;;;;;7.45;2.70;;;7.70;96.90;;;;;;5014557;28;20057;-65
2022/02/05 11:31:55;;;;;;;6.88;2.90;;;7.70;96.00;;;;;;5016879;28;20100;-65
2022/02/05 11:34:29;;;;;;;10.75;3.13;;;7.70;96.80;;;;;;5017960;28;20046;-68
2022/02/05 11:37:06;;;;;;;8.88;2.67;;;7.80;96.40;;;;;;5034186;28;20061;-65
2022/02/05 11:39:46;;;;;;;9.38;2.60;;;7.90;96.50;;;;;;5045595;28;20046;-64
2022/02/05 11:42:43;;;;;;;10.00;3.13;;;7.90;95.80;;;;;;5012513;28;20054;-65
2022/02/05 11:45:25;;;;;;;7.47;2.03;;;8.00;95.40;;;;;;4989926;28;20054;-64
2022/02/05 11:47:52;;;;;;;13.18;2.42;;;8.00;95.90;;;;;;4995295;28;20054;-65
2022/02/05 11:50:22;;;;;;;10.27;3.78;;;8.10;96.10;;;;;;4994456;28;20069;-65
2022/02/05 11:52:49;;;;;;;13.27;3.42;;;8.10;95.70;;;;;;4994822;28;20399;-64
2022/02/05 11:55:30;;;;;;;14.57;2.47;;;8.10;95.30;;;;;;5005082;28;20448;-65
2022/02/05 11:57:58;;;;;;;8.55;2.90;;;8.10;95.70;;;;;;5014151;28;20116;-65
2022/02/05 12:00:55;;;;;;;7.05;1.90;;;8.10;95.40;;;;;;5014483;28;20058;-65
2022/02/05 12:03:35;;;;;;;9.60;2.55;;;8.20;95.00;;;;;;5012151;28;20056;-65
2022/02/05 12:06:10;;;;;;;10.10;3.60;;;8.20;95.40;;;;;;5013767;28;20053;-65
2022/02/05 12:08:43;;;;;;;9.80;3.22;;;8.30;95.00;;;;;;5030685;28;20041;-66
2022/02/05 12:11:29;;;;;;;14.52;3.00;;;8.40;95.10;;;;;;5033096;28;20072;-65
2022/02/05 12:14:10;;;;;;;10.88;2.25;;;8.40;94.60;;;;;;5033588;28;20049;-65
2022/02/05 12:16:38;;;;;;;15.65;2.20;;;8.50;94.50;;;;;;5032995;28;20382;-65
2022/02/05 12:19:26;;;;;;;10.10;2.88;;;8.50;95.00;;;;;;5034515;28;20072;-64
2022/02/05 12:21:59;;;;;;;17.35;3.63;;;8.50;94.30;;;;;;5034437;28;20049;-64
2022/02/05 12:24:39;;;;;;;10.10;3.05;;;8.50;94.30;;;;;;5028660;28;20054;-65
2022/02/05 12:27:33;;;;;;;6.07;2.05;;;8.50;94.70;;;;;;4999932;28;20453;-66
2022/02/05 12:30:44;;;;;;;10.25;2.92;;;8.50;93.80;;;;;;5011686;28;20050;-65
2022/02/05 12:33:11;;;;;;;15.00;3.55;;;8.60;94.10;;;;;;5014791;28;20404;-65
2022/02/05 12:35:50;;;;;;;7.75;2.30;;;8.70;94.40;;;;;;5014075;28;20511;-65
2022/02/05 12:38:17;;;;;;;7.97;1.60;;;8.80;93.30;;;;;;5014585;28;20116;-68
2022/02/05 12:40:45;;;;;;;7.10;2.90;;;8.90;93.80;;;;;;5017389;28;20099;-66
2022/02/05 12:43:14;;;;;;;5.88;1.95;;;8.90;93.60;;;;;;4984806;28;20053;-65
2022/02/05 12:48:23;;;;;;;9.73;2.17;;;8.90;93.50;;;;;;5001706;28;20054;-65
2022/02/05 12:50:50;;;;;;;10.23;2.08;;;8.90;92.80;;;;;;5000355;28;20115;-65
2022/02/05 12:53:18;;;;;;;6.03;1.75;;;8.90;93.10;;;;;;5000238;28;20485;-65
2022/02/05 12:55:46;;;;;;;8.60;2.65;;;8.90;93.00;;;;;;5033209;28;20057;-67
2022/02/05 12:58:17;;;;;;;5.13;2.03;;;9.00;93.40;;;;;;5016638;28;20053;-65
2022/02/05 13:00:44;;;;;;;8.93;2.60;;;9.10;92.20;;;;;;5028820;28;20057;-65
2022/02/05 13:03:24;;;;;;;6.05;1.92;;;9.10;91.60;;;;;;5033618;28;20083;-65
2022/02/05 13:05:51;;;;;;;7.53;2.22;;;9.10;91.50;;;;;;5016712;28;20060;-65
2022/02/05 13:08:18;;;;;;;5.35;2.17;;;9.20;91.80;;;;;;5033870;28;20056;-65
2022/02/05 13:10:46;;;;;;;7.65;1.92;;;9.30;91.40;;;;;;5015606;28;20049;-67
2022/02/05 13:13:13;;;;;;;10.52;1.95;;;9.30;90.80;;;;;;5016258;28;20049;-65
2022/02/05 13:16:00;;;;;;;6.45;1.88;;;9.50;90.40;;;;;;5018258;28;20076;-65
2022/02/05 13:18:41;;;;;;;6.03;2.35;;;9.70;89.90;;;;;;5016099;28;20046;-65
2022/02/05 13:26:53;;;;;;;7.72;2.10;;;9.90;88.90;;;;;;5033387;28;20049;-65
2022/02/05 13:29:36;;;;;;;9.00;2.08;;;9.90;87.80;;;;;;5015654;28;20084;-68
2022/02/05 13:34:50;;;;;;;5.65;2.28;;;9.90;87.80;;;;;;5003786;28;20061;-65
2022/02/05 13:37:23;;;;;;;7.22;1.95;;;9.90;87.80;;;;;;4999481;28;20053;-65
2022/02/05 13:40:02;;;;;;;9.40;3.78;;;9.90;87.70;;;;;;5000731;28;20068;-65
2022/02/05 13:42:35;;;;;;;6.10;2.30;;;9.90;86.50;;;;;;5011691;28;20488;-66
2022/02/05 13:45:11;;;;;;;8.52;2.83;;;9.90;87.00;;;;;;5012757;28;20050;-65
2022/02/05 13:47:44;;;;;;;4.50;2.55;;;10.00;88.30;;;;;;5012347;28;20050;-65
2022/02/05 13:50:12;;;;;;;6.95;2.45;;;10.10;88.80;;;;;;5011969;28;20061;-65
2022/02/05 13:52:46;;;;;;;7.30;2.53;;;10.20;88.00;;;;;;5013014;28;20054;-65
2022/02/05 13:55:26;;;;;;;6.63;2.28;;;10.20;86.50;;;;;;5012997;28;20050;-65
2022/02/05 13:58:05;;;;;;;7.50;1.85;;;10.30;87.30;;;;;;5011515;28;20053;-65
2022/02/05 14:00:51;;;;;;;6.32;1.67;;;10.30;86.30;;;;;;5013050;28;20054;-65
2022/02/05 14:03:35;;;;;;;3.88;1.75;;;10.40;87.40;;;;;;5011751;28;20056;-65
2022/02/05 14:06:12;;;;;;;8.63;2.25;;;10.50;85.70;;;;;;5011890;28;20045;-65
2022/02/05 14:08:45;;;;;;;6.22;2.22;;;10.50;85.10;;;;;;5016063;28;20041;-65
2022/02/05 14:11:29;;;;;;;5.65;2.03;;;10.60;86.50;;;;;;5030906;28;20050;-65
2022/02/05 14:13:57;;;;;;;5.05;2.17;;;10.60;86.40;;;;;;5031438;28;20053;-65
2022/02/05 14:16:32;;;;;;;7.28;2.10;;;10.60;85.80;;;;;;5030618;28;20052;-65
2022/02/05 14:19:01;;;;;;;5.85;2.05;;;10.60;86.00;;;;;;5031273;28;20053;-65
2022/02/05 14:21:35;;;;;;;4.20;2.10;;;10.60;85.60;;;;;;5028877;28;20060;-65
2022/02/05 14:24:02;;;;;;;6.07;1.75;;;10.60;86.30;;;;;;5032025;28;20056;-65
2022/02/05 14:26:38;;;;;;;11.27;5.20;;;10.60;86.70;;;;;;5010487;28;20050;-66
2022/02/05 14:29:07;;;;;;;111.22;76.28;;;10.60;86.40;;;;;;4991934;28;20045;-66
2022/02/05 14:31:45;;;;;;;13.52;8.52;;;10.60;87.70;;;;;;5006492;28;20053;-64
2022/02/05 14:34:18;;;;;;;7.68;4.18;;;10.60;87.30;;;;;;5012449;28;20050;-64
2022/02/05 14:42:06;;;;;;;19.65;2.67;;;10.40;86.50;;;;;;5041277;28;20052;-71
2022/02/05 14:44:34;;;;;;;8.10;2.17;;;10.30;88.30;;;;;;5034115;28;20052;-63
2022/02/05 14:47:00;;;;;;;8.20;2.90;;;10.30;87.30;;;;;;5033319;28;20060;-64
2022/02/05 14:49:28;;;;;;;6.10;2.25;;;10.20;87.30;;;;;;5051854;28;20052;-64
2022/02/05 14:51:57;;;;;;;9.30;1.73;;;10.20;88.40;;;;;;5051805;28;20143;-63
2022/02/05 14:54:24;;;;;;;7.33;3.40;;;10.20;88.80;;;;;;5025558;28;20053;-67
2022/02/05 14:56:51;;;;;;;5.32;2.28;;;10.20;88.20;;;;;;5031897;28;20294;-72
2022/02/05 14:59:18;;;;;;;7.72;2.15;;;10.30;88.10;;;;;;5041772;28;20045;-68
2022/02/05 15:01:45;;;;;;;7.47;2.20;;;10.30;87.60;;;;;;5032376;28;20049;-64
2022/02/05 15:04:12;;;;;;;6.93;1.98;;;10.40;87.60;;;;;;5042400;28;20045;-64
2022/02/05 15:06:41;;;;;;;8.68;2.53;;;10.40;86.60;;;;;;5002563;28;20485;-63
2022/02/05 15:09:08;;;;;;;3.88;2.20;;;10.40;86.60;;;;;;5020836;28;20055;-64
2022/02/05 15:11:35;;;;;;;9.57;3.20;;;10.40;86.20;;;;;;5030132;28;20508;-64
2022/02/05 15:14:03;;;;;;;8.73;2.88;;;10.40;86.80;;;;;;5031739;28;20049;-65
2022/02/05 15:16:32;;;;;;;6.65;2.28;;;10.50;86.70;;;;;;5050970;28;20052;-63
2022/02/05 15:19:01;;;;;;;5.90;2.83;;;10.50;86.90;;;;;;5051348;28;20107;-64
2022/02/05 15:21:38;;;;;;;6.85;2.13;;;10.40;86.60;;;;;;5020673;28;20497;-63
2022/02/05 15:24:06;;;;;;;6.22;1.55;;;10.50;86.70;;;;;;5038554;28;20049;-69
2022/02/05 15:26:34;;;;;;;5.90;1.80;;;10.40;87.70;;;;;;5031767;28;20057;-64
2022/02/05 15:29:04;;;;;;;4.38;1.85;;;10.50;86.90;;;;;;5031571;28;20433;-68
2022/02/05 15:31:32;;;;;;;4.82;2.00;;;10.50;86.10;;;;;;5046179;28;20045;-63
2022/02/05 15:34:02;;;;;;;10.55;2.40;;;10.40;86.40;;;;;;5051152;28;20057;-74
2022/02/05 15:36:36;;;;;;;5.45;1.88;;;10.40;86.80;;;;;;5035914;28;20132;-67
2022/02/05 15:39:35;;;;;;;6.45;2.22;;;10.40;86.30;;;;;;5030158;28;20049;-63
2022/02/05 15:44:39;;;;;;;5.75;1.95;;;10.40;86.20;;;;;;4992555;28;20181;-73
2022/02/05 15:47:07;;;;;;;9.63;2.35;;;10.40;87.00;;;;;;5008440;28;20042;-63
2022/02/05 15:49:34;;;;;;;5.68;2.42;;;10.30;87.60;;;;;;5011715;28;20052;-64
2022/02/05 15:52:02;;;;;;;4.45;2.53;;;10.30;87.60;;;;;;5009775;28;20054;-68
2022/02/05 15:54:30;;;;;;;35.35;22.27;;;10.30;88.60;;;;;;4978138;28;20042;-64
2022/02/05 15:59:52;;;;;;;8.45;3.50;;;10.40;87.80;;;;;;5010823;28;20460;-64
2022/02/05 16:02:19;;;;;;;7.32;2.30;;;10.40;87.30;;;;;;4994207;28;20052;-65
2022/02/05 16:04:46;;;;;;;7.50;2.22;;;10.30;87.80;;;;;;5014505;28;20042;-64
2022/02/05 16:07:13;;;;;;;5.68;2.53;;;10.30;88.00;;;;;;5014338;28;20053;-64
2022/02/05 16:09:43;;;;;;;7.05;2.88;;;10.20;88.20;;;;;;5014421;28;20046;-66
2022/02/05 16:12:11;;;;;;;9.20;2.95;;;10.20;88.00;;;;;;5014185;28;20041;-64
2022/02/05 16:14:38;;;;;;;7.82;2.30;;;10.10;88.80;;;;;;5016954;28;20505;-62
2022/02/05 16:17:05;;;;;;;10.43;2.15;;;10.10;88.20;;;;;;5023867;28;20516;-64
2022/02/05 16:19:32;;;;;;;6.53;2.17;;;10.00;88.50;;;;;;5013735;28;20041;-64
2022/02/05 16:21:59;;;;;;;7.35;2.42;;;10.00;89.10;;;;;;5022943;28;20072;-70